Ana Sayfa
METAR-TAF:

METAR-TAF

Havaalanları :

Sandakan, Malezya

Enlem: 05-54N, Boylam: 118-04E, yükseklik: 12 m

Güncel hava durumu gözlemi

Rapor saat 01:00 UTC de 41 dakika önce yapıldı.
Sakin rüzgar
Sıcaklık 27°C
Nem 94%
Basınç 1012 hPa
Görüş mesafesi 10 km veya daha fazla
1500 ft yükseklikte parçalı bulutlu
1700 ft yükseklikte az bulutlu, Kümülonimbus.

METAR: WBKS 260100Z 00000KT 9999 SCT015 FEW017CB 27/26 Q1012

Saat: 09:41 (01:41 UTC)

Tahmin

Rapor saat 23:00 UTC de 2 saat ve 41 dakika önce yapıldı.
Ayın 26'si saat 00 UTC'den ayın 27'si saat 00 UTC'ye kadar geçerli Tahmin
Rüzgar kuzeydoğudan 7 kt
Görüş mesafesi 10 km veya daha fazla
1600 ft yükseklikte az bulutlu

TAF: WBKS 252300Z 2600/2700 04007KT 9999 FEW016

4.000'den fazla havaalanı için hava durumu gözlemleri ve tahminleri (METAR ve TAF raporları).

Kullanılabilir istasyonlar harita üzerinde sarı ve kırmızı noktalarla gösterilir.

İstasyonun adını görmek için fareyi noktanın üzerinde gezdirin.

Sonrasında hava gözlem ve tahminlerini görmek için tıklayın.

Haritayı değiştirmek için: yaklaştırmak için siyah artı işaretli yeşil düğmeye ve uzaklaştırmak için de eksi işaretli düğmeye hızla tıklayın; bitişik haritalar için yeşil okları kullanın.


METAR-TAF: